sensor_id;sensor_type;location;lat;lon;timestamp;pressure;altitude;pressure_sealevel;temperature;humidity
10261;BME280;5175;42.606;23.388;2024-02-23T00:00:06;93463.59;;;5.46;100.00
10261;BME280;5175;42.606;23.388;2024-02-23T00:02:37;93467.34;;;5.55;100.00
10261;BME280;5175;42.606;23.388;2024-02-23T00:05:04;93481.16;;;5.62;100.00
10261;BME280;5175;42.606;23.388;2024-02-23T00:07:30;93475.56;;;5.58;100.00
10261;BME280;5175;42.606;23.388;2024-02-23T00:09:57;93461.38;;;5.69;100.00
10261;BME280;5175;42.606;23.388;2024-02-23T00:12:25;93472.81;;;5.80;100.00
10261;BME280;5175;42.606;23.388;2024-02-23T00:14:52;93463.06;;;5.91;100.00
10261;BME280;5175;42.606;23.388;2024-02-23T00:17:19;93479.25;;;5.94;100.00
10261;BME280;5175;42.606;23.388;2024-02-23T00:19:46;93467.56;;;5.85;100.00
10261;BME280;5175;42.606;23.388;2024-02-23T00:22:13;93460.09;;;5.82;100.00
10261;BME280;5175;42.606;23.388;2024-02-23T00:24:39;93472.25;;;5.78;100.00
10261;BME280;5175;42.606;23.388;2024-02-23T00:27:06;93459.31;;;5.40;100.00
10261;BME280;5175;42.606;23.388;2024-02-23T00:29:34;93460.47;;;5.17;100.00
10261;BME280;5175;42.606;23.388;2024-02-23T00:32:02;93465.88;;;5.32;100.00
10261;BME280;5175;42.606;23.388;2024-02-23T00:34:28;93472.16;;;5.63;100.00
10261;BME280;5175;42.606;23.388;2024-02-23T00:36:57;93473.34;;;5.40;100.00
10261;BME280;5175;42.606;23.388;2024-02-23T00:39:24;93451.13;;;5.41;100.00
10261;BME280;5175;42.606;23.388;2024-02-23T00:41:50;93448.22;;;5.43;100.00
10261;BME280;5175;42.606;23.388;2024-02-23T00:44:17;93457.00;;;5.48;100.00
10261;BME280;5175;42.606;23.388;2024-02-23T00:46:46;93457.19;;;5.42;100.00
10261;BME280;5175;42.606;23.388;2024-02-23T00:49:13;93451.13;;;5.41;100.00
10261;BME280;5175;42.606;23.388;2024-02-23T00:51:39;93445.75;;;5.26;100.00
10261;BME280;5175;42.606;23.388;2024-02-23T00:54:06;93438.88;;;5.30;100.00
10261;BME280;5175;42.606;23.388;2024-02-23T00:56:34;93438.19;;;5.45;100.00
10261;BME280;5175;42.606;23.388;2024-02-23T00:59:00;93422.38;;;5.60;100.00
10261;BME280;5175;42.606;23.388;2024-02-23T01:01:27;93422.47;;;5.28;100.00
10261;BME280;5175;42.606;23.388;2024-02-23T01:03:55;93432.75;;;5.25;100.00
10261;BME280;5175;42.606;23.388;2024-02-23T01:06:23;93432.88;;;5.45;100.00
10261;BME280;5175;42.606;23.388;2024-02-23T01:08:50;93429.56;;;5.59;100.00
10261;BME280;5175;42.606;23.388;2024-02-23T01:11:17;93427.16;;;5.63;100.00
10261;BME280;5175;42.606;23.388;2024-02-23T01:13:44;93438.63;;;5.79;100.00
10261;BME280;5175;42.606;23.388;2024-02-23T01:16:11;93429.97;;;5.88;100.00
10261;BME280;5175;42.606;23.388;2024-02-23T01:18:37;93430.25;;;5.92;100.00
10261;BME280;5175;42.606;23.388;2024-02-23T01:21:06;93425.50;;;5.94;100.00
10261;BME280;5175;42.606;23.388;2024-02-23T01:23:32;93439.56;;;5.99;99.51
10261;BME280;5175;42.606;23.388;2024-02-23T01:25:59;93435.34;;;5.98;98.72
10261;BME280;5175;42.606;23.388;2024-02-23T01:28:26;93432.41;;;5.95;98.45
10261;BME280;5175;42.606;23.388;2024-02-23T01:30:53;93428.94;;;5.94;98.66
10261;BME280;5175;42.606;23.388;2024-02-23T01:33:20;93426.59;;;5.98;100.00
10261;BME280;5175;42.606;23.388;2024-02-23T01:35:46;93423.56;;;5.79;100.00
10261;BME280;5175;42.606;23.388;2024-02-23T01:38:14;93414.56;;;5.75;100.00
10261;BME280;5175;42.606;23.388;2024-02-23T01:40:45;93414.00;;;5.73;100.00
10261;BME280;5175;42.606;23.388;2024-02-23T01:43:12;93412.34;;;5.57;100.00
10261;BME280;5175;42.606;23.388;2024-02-23T01:45:39;93412.56;;;5.55;100.00
10261;BME280;5175;42.606;23.388;2024-02-23T01:48:06;93405.19;;;5.62;100.00
10261;BME280;5175;42.606;23.388;2024-02-23T01:50:34;93413.13;;;5.62;100.00
10261;BME280;5175;42.606;23.388;2024-02-23T01:53:02;93400.94;;;5.56;100.00
10261;BME280;5175;42.606;23.388;2024-02-23T01:55:31;93398.53;;;5.55;100.00
10261;BME280;5175;42.606;23.388;2024-02-23T01:57:59;93381.31;;;5.47;100.00
10261;BME280;5175;42.606;23.388;2024-02-23T02:00:26;93386.16;;;5.60;100.00
10261;BME280;5175;42.606;23.388;2024-02-23T02:02:53;93394.91;;;5.66;100.00
10261;BME280;5175;42.606;23.388;2024-02-23T02:05:20;93380.06;;;5.65;100.00
10261;BME280;5175;42.606;23.388;2024-02-23T02:07:49;93377.84;;;5.42;100.00
10261;BME280;5175;42.606;23.388;2024-02-23T02:10:20;93379.47;;;5.48;100.00
10261;BME280;5175;42.606;23.388;2024-02-23T02:12:48;93375.19;;;5.42;100.00
10261;BME280;5175;42.606;23.388;2024-02-23T02:15:14;93360.16;;;5.52;100.00
10261;BME280;5175;42.606;23.388;2024-02-23T02:17:41;93375.88;;;5.69;100.00
10261;BME280;5175;42.606;23.388;2024-02-23T02:20:11;93376.66;;;5.64;100.00
10261;BME280;5175;42.606;23.388;2024-02-23T02:22:38;93374.22;;;5.58;100.00
10261;BME280;5175;42.606;23.388;2024-02-23T02:25:06;93362.78;;;5.47;100.00
10261;BME280;5175;42.606;23.388;2024-02-23T02:27:33;93386.47;;;5.74;99.63
10261;BME280;5175;42.606;23.388;2024-02-23T02:30:01;93384.06;;;5.67;100.00
10261;BME280;5175;42.606;23.388;2024-02-23T02:32:28;93387.75;;;5.61;100.00
10261;BME280;5175;42.606;23.388;2024-02-23T02:34:54;93395.41;;;5.63;100.00
10261;BME280;5175;42.606;23.388;2024-02-23T02:37:21;93391.72;;;5.64;100.00
10261;BME280;5175;42.606;23.388;2024-02-23T02:39:48;93399.75;;;5.79;99.81
10261;BME280;5175;42.606;23.388;2024-02-23T02:42:15;93393.84;;;5.62;100.00
10261;BME280;5175;42.606;23.388;2024-02-23T02:44:41;93393.84;;;5.62;100.00
10261;BME280;5175;42.606;23.388;2024-02-23T02:47:09;93382.66;;;5.55;100.00
10261;BME280;5175;42.606;23.388;2024-02-23T02:49:36;93383.78;;;5.64;100.00
10261;BME280;5175;42.606;23.388;2024-02-23T02:52:03;93387.47;;;5.58;100.00
10261;BME280;5175;42.606;23.388;2024-02-23T02:54:30;93388.00;;;5.60;100.00
10261;BME280;5175;42.606;23.388;2024-02-23T02:56:56;93388.56;;;5.62;99.84
10261;BME280;5175;42.606;23.388;2024-02-23T02:59:23;93397.06;;;5.74;98.62
10261;BME280;5175;42.606;23.388;2024-02-23T03:01:50;93400.50;;;5.69;99.18
10261;BME280;5175;42.606;23.388;2024-02-23T03:04:18;93385.91;;;5.62;99.66
10261;BME280;5175;42.606;23.388;2024-02-23T03:06:45;93387.75;;;5.61;100.00
10261;BME280;5175;42.606;23.388;2024-02-23T03:09:12;93400.19;;;5.66;100.00
10261;BME280;5175;42.606;23.388;2024-02-23T03:11:38;93380.28;;;5.48;100.00
10261;BME280;5175;42.606;23.388;2024-02-23T03:14:05;93377.44;;;5.65;100.00
10261;BME280;5175;42.606;23.388;2024-02-23T03:16:32;93392.78;;;5.68;100.00
10261;BME280;5175;42.606;23.388;2024-02-23T03:18:59;93405.84;;;5.80;100.00
10261;BME280;5175;42.606;23.388;2024-02-23T03:21:27;93402.66;;;5.78;100.00
10261;BME280;5175;42.606;23.388;2024-02-23T03:23:54;93393.91;;;5.77;100.00
10261;BME280;5175;42.606;23.388;2024-02-23T03:26:21;93404.69;;;5.65;100.00
10261;BME280;5175;42.606;23.388;2024-02-23T03:28:47;93397.44;;;5.88;99.86
10261;BME280;5175;42.606;23.388;2024-02-23T03:31:14;93397.81;;;5.64;100.00
10261;BME280;5175;42.606;23.388;2024-02-23T03:33:41;93412.16;;;5.79;100.00
10261;BME280;5175;42.606;23.388;2024-02-23T03:36:08;93400.72;;;5.68;100.00
10261;BME280;5175;42.606;23.388;2024-02-23T03:38:36;93391.78;;;5.79;99.56
10261;BME280;5175;42.606;23.388;2024-02-23T03:41:03;93392.09;;;5.83;100.00
10261;BME280;5175;42.606;23.388;2024-02-23T03:43:30;93393.44;;;5.85;100.00
10261;BME280;5175;42.606;23.388;2024-02-23T03:45:56;93411.72;;;5.87;100.00
10261;BME280;5175;42.606;23.388;2024-02-23T03:48:23;93409.06;;;5.87;99.99
10261;BME280;5175;42.606;23.388;2024-02-23T03:50:50;93408.28;;;5.91;99.89
10261;BME280;5175;42.606;23.388;2024-02-23T03:53:16;93392.97;;;5.98;99.68
10261;BME280;5175;42.606;23.388;2024-02-23T03:55:44;93399.84;;;5.99;99.66
10261;BME280;5175;42.606;23.388;2024-02-23T03:58:11;93395.34;;;5.95;100.00
10261;BME280;5175;42.606;23.388;2024-02-23T04:00:38;93399.34;;;6.02;100.00
10261;BME280;5175;42.606;23.388;2024-02-23T04:03:04;93403.72;;;5.82;100.00
10261;BME280;5175;42.606;23.388;2024-02-23T04:05:31;93409.34;;;5.90;100.00
10261;BME280;5175;42.606;23.388;2024-02-23T04:07:58;93406.69;;;5.85;100.00
10261;BME280;5175;42.606;23.388;2024-02-23T04:10:25;93394.97;;;5.81;100.00
10261;BME280;5175;42.606;23.388;2024-02-23T04:12:53;93393.91;;;5.77;100.00
10261;BME280;5175;42.606;23.388;2024-02-23T04:15:19;93394.56;;;5.99;99.82
10261;BME280;5175;42.606;23.388;2024-02-23T04:17:46;93385.50;;;5.85;100.00
10261;BME280;5175;42.606;23.388;2024-02-23T04:20:13;93398.50;;;5.92;100.00
10261;BME280;5175;42.606;23.388;2024-02-23T04:22:40;93393.19;;;5.92;100.00
10261;BME280;5175;42.606;23.388;2024-02-23T04:25:07;93392.44;;;6.01;100.00
10261;BME280;5175;42.606;23.388;2024-02-23T04:27:34;93405.66;;;5.96;100.00
10261;BME280;5175;42.606;23.388;2024-02-23T04:30:02;93382.78;;;5.75;100.00
10261;BME280;5175;42.606;23.388;2024-02-23T04:32:29;93408.75;;;5.83;100.00
10261;BME280;5175;42.606;23.388;2024-02-23T04:34:56;93407.16;;;5.77;100.00
10261;BME280;5175;42.606;23.388;2024-02-23T04:37:23;93416.63;;;5.68;100.00
10261;BME280;5175;42.606;23.388;2024-02-23T04:39:49;93405.75;;;5.59;100.00
10261;BME280;5175;42.606;23.388;2024-02-23T04:42:16;93405.19;;;5.57;100.00
10261;BME280;5175;42.606;23.388;2024-02-23T04:44:43;93413.22;;;5.73;100.00
10261;BME280;5175;42.606;23.388;2024-02-23T04:47:11;93419.50;;;5.61;100.00
10261;BME280;5175;42.606;23.388;2024-02-23T04:49:37;93392.19;;;5.51;100.00
10261;BME280;5175;42.606;23.388;2024-02-23T04:52:05;93406.28;;;5.61;100.00
10261;BME280;5175;42.606;23.388;2024-02-23T04:54:32;93403.59;;;5.56;100.00
10261;BME280;5175;42.606;23.388;2024-02-23T04:56:58;93397.22;;;5.52;100.00
10261;BME280;5175;42.606;23.388;2024-02-23T04:59:25;93412.03;;;5.53;100.00
10261;BME280;5175;42.606;23.388;2024-02-23T05:01:53;93422.88;;;5.47;100.00
10261;BME280;5175;42.606;23.388;2024-02-23T05:04:21;93397.38;;;5.31;100.00
10261;BME280;5175;42.606;23.388;2024-02-23T05:06:48;93387.25;;;5.23;100.00
10261;BME280;5175;42.606;23.388;2024-02-23T05:09:15;93401.91;;;5.03;100.00
10261;BME280;5175;42.606;23.388;2024-02-23T05:11:41;93410.16;;;5.07;100.00
10261;BME280;5175;42.606;23.388;2024-02-23T05:14:08;93425.31;;;5.22;100.00
10261;BME280;5175;42.606;23.388;2024-02-23T05:16:35;93420.72;;;5.07;100.00
10261;BME280;5175;42.606;23.388;2024-02-23T05:19:02;93413.56;;;5.02;100.00
10261;BME280;5175;42.606;23.388;2024-02-23T05:21:30;93432.97;;;5.18;100.00
10261;BME280;5175;42.606;23.388;2024-02-23T05:23:57;93436.94;;;5.16;100.00
10261;BME280;5175;42.606;23.388;2024-02-23T05:26:24;93437.91;;;5.04;100.00
10261;BME280;5175;42.606;23.388;2024-02-23T05:28:51;93438.13;;;4.98;100.00
10261;BME280;5175;42.606;23.388;2024-02-23T05:31:17;93425.47;;;5.05;100.00
10261;BME280;5175;42.606;23.388;2024-02-23T05:33:45;93439.34;;;5.22;100.00
10261;BME280;5175;42.606;23.388;2024-02-23T05:36:11;93448.50;;;5.10;100.00
10261;BME280;5175;42.606;23.388;2024-02-23T05:38:40;93430.00;;;5.10;100.00
10261;BME280;5175;42.606;23.388;2024-02-23T05:41:11;93434.78;;;5.13;100.00
10261;BME280;5175;42.606;23.388;2024-02-23T05:43:38;93429.50;;;5.13;100.00
10261;BME280;5175;42.606;23.388;2024-02-23T05:46:04;93434.78;;;5.13;100.00
10261;BME280;5175;42.606;23.388;2024-02-23T05:48:31;93446.00;;;5.30;100.00
10261;BME280;5175;42.606;23.388;2024-02-23T05:50:58;93469.44;;;5.53;100.00
10261;BME280;5175;42.606;23.388;2024-02-23T05:53:25;93458.38;;;5.61;100.00
10261;BME280;5175;42.606;23.388;2024-02-23T05:55:53;93457.09;;;5.63;100.00
10261;BME280;5175;42.606;23.388;2024-02-23T05:58:19;93448.97;;;5.75;100.00
10261;BME280;5175;42.606;23.388;2024-02-23T06:00:46;93470.66;;;5.77;100.00
10261;BME280;5175;42.606;23.388;2024-02-23T06:03:13;93470.53;;;5.99;99.63
10261;BME280;5175;42.606;23.388;2024-02-23T06:05:39;93471.94;;;6.16;97.50
10261;BME280;5175;42.606;23.388;2024-02-23T06:08:12;93465.94;;;6.36;98.12
10261;BME280;5175;42.606;23.388;2024-02-23T06:10:39;93459.59;;;6.47;97.02
10261;BME280;5175;42.606;23.388;2024-02-23T06:13:09;93472.63;;;6.54;96.04
10261;BME280;5175;42.606;23.388;2024-02-23T06:15:36;93485.38;;;6.62;95.35
10261;BME280;5175;42.606;23.388;2024-02-23T06:18:04;93477.66;;;6.65;95.61
10261;BME280;5175;42.606;23.388;2024-02-23T06:20:31;93493.34;;;6.72;90.97
10261;BME280;5175;42.606;23.388;2024-02-23T06:22:57;93501.84;;;6.89;89.60
10261;BME280;5175;42.606;23.388;2024-02-23T06:25:24;93496.03;;;6.97;89.16
10261;BME280;5175;42.606;23.388;2024-02-23T06:27:51;93491.03;;;7.16;88.02
10261;BME280;5175;42.606;23.388;2024-02-23T06:30:20;93486.53;;;7.26;87.11
10261;BME280;5175;42.606;23.388;2024-02-23T06:32:48;93483.34;;;7.39;85.37
10261;BME280;5175;42.606;23.388;2024-02-23T06:35:15;93498.19;;;7.55;84.70
10261;BME280;5175;42.606;23.388;2024-02-23T06:37:42;93488.38;;;7.61;83.88
10261;BME280;5175;42.606;23.388;2024-02-23T06:40:09;93485.47;;;7.63;82.59
10261;BME280;5175;42.606;23.388;2024-02-23T06:42:36;93497.91;;;7.82;82.37
10261;BME280;5175;42.606;23.388;2024-02-23T06:45:03;93490.44;;;7.99;81.78
10261;BME280;5175;42.606;23.388;2024-02-23T06:47:31;93502.63;;;8.15;81.53
10261;BME280;5175;42.606;23.388;2024-02-23T06:49:58;93501.00;;;8.14;81.51
10261;BME280;5175;42.606;23.388;2024-02-23T06:52:25;93499.94;;;8.36;80.42
10261;BME280;5175;42.606;23.388;2024-02-23T06:54:52;93494.03;;;8.49;79.22
10261;BME280;5175;42.606;23.388;2024-02-23T06:57:19;93498.44;;;8.73;77.54
10261;BME280;5175;42.606;23.388;2024-02-23T06:59:46;93501.34;;;8.77;77.21
10261;BME280;5175;42.606;23.388;2024-02-23T07:02:12;93505.03;;;8.81;77.46
10261;BME280;5175;42.606;23.388;2024-02-23T07:04:40;93497.31;;;8.85;76.86
10261;BME280;5175;42.606;23.388;2024-02-23T07:07:07;93492.25;;;8.88;77.65
10261;BME280;5175;42.606;23.388;2024-02-23T07:09:35;93499.69;;;8.86;77.48
10261;BME280;5175;42.606;23.388;2024-02-23T07:12:02;93505.66;;;9.12;76.73
10261;BME280;5175;42.606;23.388;2024-02-23T07:14:28;93508.22;;;9.32;76.37
10261;BME280;5175;42.606;23.388;2024-02-23T07:16:55;93498.00;;;9.44;75.10
10261;BME280;5175;42.606;23.388;2024-02-23T07:19:22;93504.19;;;9.68;73.29
10261;BME280;5175;42.606;23.388;2024-02-23T07:21:50;93497.03;;;9.64;73.07
10261;BME280;5175;42.606;23.388;2024-02-23T07:24:17;93497.28;;;9.67;73.39
10261;BME280;5175;42.606;23.388;2024-02-23T07:26:44;93499.75;;;9.87;73.14
10261;BME280;5175;42.606;23.388;2024-02-23T07:29:11;93507.09;;;9.72;71.87
10261;BME280;5175;42.606;23.388;2024-02-23T07:31:38;93494.72;;;9.86;73.52
10261;BME280;5175;42.606;23.388;2024-02-23T07:34:04;93483.03;;;10.11;71.87
10261;BME280;5175;42.606;23.388;2024-02-23T07:36:31;93495.97;;;10.22;71.23
10261;BME280;5175;42.606;23.388;2024-02-23T07:38:59;93502.34;;;9.97;71.66
10261;BME280;5175;42.606;23.388;2024-02-23T07:41:26;93491.31;;;10.09;72.47
10261;BME280;5175;42.606;23.388;2024-02-23T07:43:52;93503.09;;;10.32;71.07
10261;BME280;5175;42.606;23.388;2024-02-23T07:46:19;93510.91;;;10.47;69.69
10261;BME280;5175;42.606;23.388;2024-02-23T07:48:47;93517.31;;;10.22;70.32
10261;BME280;5175;42.606;23.388;2024-02-23T07:51:14;93523.50;;;10.18;72.37
10261;BME280;5175;42.606;23.388;2024-02-23T07:53:41;93507.00;;;10.39;71.29
10261;BME280;5175;42.606;23.388;2024-02-23T07:56:09;93495.38;;;10.54;70.28
10261;BME280;5175;42.606;23.388;2024-02-23T07:58:37;93486.28;;;10.31;72.32
10261;BME280;5175;42.606;23.388;2024-02-23T08:01:03;93489.69;;;10.37;71.53
10261;BME280;5175;42.606;23.388;2024-02-23T08:03:30;93500.94;;;10.34;73.54
10261;BME280;5175;42.606;23.388;2024-02-23T08:05:57;93488.72;;;10.28;73.42
10261;BME280;5175;42.606;23.388;2024-02-23T08:08:24;93505.19;;;10.35;74.58
10261;BME280;5175;42.606;23.388;2024-02-23T08:10:52;93522.13;;;10.20;75.76
10261;BME280;5175;42.606;23.388;2024-02-23T08:13:20;93503.25;;;10.17;75.88
10261;BME280;5175;42.606;23.388;2024-02-23T08:15:47;93500.06;;;10.15;75.88
10261;BME280;5175;42.606;23.388;2024-02-23T08:18:13;93497.38;;;10.15;76.19
10261;BME280;5175;42.606;23.388;2024-02-23T08:20:40;93489.19;;;10.35;75.06
10261;BME280;5175;42.606;23.388;2024-02-23T08:23:07;93494.97;;;10.18;77.67
10261;BME280;5175;42.606;23.388;2024-02-23T08:25:34;93501.97;;;10.09;77.14
10261;BME280;5175;42.606;23.388;2024-02-23T08:28:01;93494.09;;;9.94;77.79
10261;BME280;5175;42.606;23.388;2024-02-23T08:30:29;93489.41;;;10.09;77.38
10261;BME280;5175;42.606;23.388;2024-02-23T08:32:56;93491.06;;;10.34;77.17
10261;BME280;5175;42.606;23.388;2024-02-23T08:35:22;93494.41;;;10.45;75.90
10261;BME280;5175;42.606;23.388;2024-02-23T08:37:49;93497.13;;;10.40;75.66
10261;BME280;5175;42.606;23.388;2024-02-23T08:40:16;93498.34;;;10.52;76.42
10261;BME280;5175;42.606;23.388;2024-02-23T08:42:43;93495.75;;;10.66;74.92
10261;BME280;5175;42.606;23.388;2024-02-23T08:45:10;93482.75;;;10.59;74.49
10261;BME280;5175;42.606;23.388;2024-02-23T08:47:41;93493.69;;;10.63;73.72
10261;BME280;5175;42.606;23.388;2024-02-23T08:50:08;93481.34;;;10.67;74.37
10261;BME280;5175;42.606;23.388;2024-02-23T08:52:35;93477.84;;;10.90;72.91
10261;BME280;5175;42.606;23.388;2024-02-23T08:55:01;93477.66;;;10.82;74.47
10261;BME280;5175;42.606;23.388;2024-02-23T08:57:29;93501.44;;;10.83;73.46
10261;BME280;5175;42.606;23.388;2024-02-23T08:59:55;93489.91;;;10.64;73.92
10261;BME280;5175;42.606;23.388;2024-02-23T09:02:23;93511.72;;;10.90;73.02
10261;BME280;5175;42.606;23.388;2024-02-23T09:08:41;93488.50;;;11.97;64.67
10261;BME280;5175;42.606;23.388;2024-02-23T09:11:28;93488.59;;;12.51;67.09
10261;BME280;5175;42.606;23.388;2024-02-23T09:14:52;93500.75;;;12.85;61.08
10261;BME280;5175;42.606;23.388;2024-02-23T09:18:30;93486.19;;;13.04;60.98
10261;BME280;5175;42.606;23.388;2024-02-23T09:21:02;93494.28;;;13.27;60.18
10261;BME280;5175;42.606;23.388;2024-02-23T09:23:32;93468.59;;;13.26;59.63
10261;BME280;5175;42.606;23.388;2024-02-23T09:26:01;93479.59;;;13.38;59.56
10261;BME280;5175;42.606;23.388;2024-02-23T09:28:30;93498.91;;;13.70;58.58
10261;BME280;5175;42.606;23.388;2024-02-23T09:30:56;93483.78;;;13.74;57.89
10261;BME280;5175;42.606;23.388;2024-02-23T09:33:23;93493.41;;;13.98;57.05
10261;BME280;5175;42.606;23.388;2024-02-23T09:35:50;93501.81;;;14.05;57.33
10261;BME280;5175;42.606;23.388;2024-02-23T09:38:17;93501.50;;;14.28;56.73
10261;BME280;5175;42.606;23.388;2024-02-23T09:40:45;93492.66;;;14.50;56.46
10261;BME280;5175;42.606;23.388;2024-02-23T09:43:14;93498.22;;;14.31;56.69
10261;BME280;5175;42.606;23.388;2024-02-23T09:45:42;93498.50;;;14.52;55.61
10261;BME280;5175;42.606;23.388;2024-02-23T09:48:10;93498.94;;;14.46;54.52
10261;BME280;5175;42.606;23.388;2024-02-23T09:50:37;93497.09;;;14.02;55.71
10261;BME280;5175;42.606;23.388;2024-02-23T09:53:07;93502.09;;;14.48;55.73
10261;BME280;5175;42.606;23.388;2024-02-23T09:55:36;93500.44;;;14.60;53.36
10261;BME280;5175;42.606;23.388;2024-02-23T09:58:03;93475.09;;;14.92;52.95
10261;BME280;5175;42.606;23.388;2024-02-23T10:00:33;93488.50;;;14.83;52.12
10261;BME280;5175;42.606;23.388;2024-02-23T10:03:01;93477.53;;;15.19;52.07
10261;BME280;5175;42.606;23.388;2024-02-23T10:05:30;93422.31;;;14.87;50.40
10261;BME280;5175;42.606;23.388;2024-02-23T10:07:57;93481.16;;;15.23;50.45
10261;BME280;5175;42.606;23.388;2024-02-23T10:10:24;93483.41;;;15.30;49.88
10261;BME280;5175;42.606;23.388;2024-02-23T10:12:52;93471.59;;;15.48;50.23
10261;BME280;5175;42.606;23.388;2024-02-23T10:15:19;93464.13;;;15.62;49.60
10261;BME280;5175;42.606;23.388;2024-02-23T10:17:47;93459.25;;;15.55;48.46
10261;BME280;5175;42.606;23.388;2024-02-23T10:20:14;93465.25;;;15.87;48.50
10261;BME280;5175;42.606;23.388;2024-02-23T10:22:41;93460.00;;;15.99;48.36
10261;BME280;5175;42.606;23.388;2024-02-23T10:25:08;93469.97;;;16.07;46.89
10261;BME280;5175;42.606;23.388;2024-02-23T10:27:35;93472.41;;;16.38;46.27
10261;BME280;5175;42.606;23.388;2024-02-23T10:30:02;93449.88;;;16.59;45.65
10261;BME280;5175;42.606;23.388;2024-02-23T10:32:29;93427.31;;;16.26;45.10
10261;BME280;5175;42.606;23.388;2024-02-23T10:35:00;93409.84;;;15.09;47.27
10261;BME280;5175;42.606;23.388;2024-02-23T10:37:30;93390.56;;;14.98;49.90
10261;BME280;5175;42.606;23.388;2024-02-23T10:39:58;93440.06;;;15.23;48.39
10261;BME280;5175;42.606;23.388;2024-02-23T10:42:33;93445.63;;;15.52;48.30
10261;BME280;5175;42.606;23.388;2024-02-23T10:45:01;93433.75;;;15.61;46.28
10261;BME280;5175;42.606;23.388;2024-02-23T10:47:30;93439.31;;;15.74;45.73
10261;BME280;5175;42.606;23.388;2024-02-23T10:50:00;93434.19;;;16.06;44.40
10261;BME280;5175;42.606;23.388;2024-02-23T10:52:27;93427.81;;;16.11;45.46
10261;BME280;5175;42.606;23.388;2024-02-23T10:54:55;93450.31;;;16.15;43.92
10261;BME280;5175;42.606;23.388;2024-02-23T10:57:23;93435.44;;;16.09;44.68
10261;BME280;5175;42.606;23.388;2024-02-23T10:59:50;93438.31;;;16.04;44.34
10261;BME280;5175;42.606;23.388;2024-02-23T11:02:19;93435.00;;;15.90;44.70
10261;BME280;5175;42.606;23.388;2024-02-23T11:04:48;93416.06;;;15.60;46.33
10261;BME280;5175;42.606;23.388;2024-02-23T11:07:19;93414.59;;;15.80;46.24
10261;BME280;5175;42.606;23.388;2024-02-23T11:09:49;93419.63;;;16.07;45.85
10261;BME280;5175;42.606;23.388;2024-02-23T11:12:22;93418.03;;;16.15;44.96
10261;BME280;5175;42.606;23.388;2024-02-23T11:14:49;93416.16;;;15.98;44.55
10261;BME280;5175;42.606;23.388;2024-02-23T11:17:18;93420.78;;;15.89;45.07
10261;BME280;5175;42.606;23.388;2024-02-23T11:19:48;93409.09;;;15.59;44.94
10261;BME280;5175;42.606;23.388;2024-02-23T11:22:25;93402.28;;;15.28;46.26
10261;BME280;5175;42.606;23.388;2024-02-23T11:24:53;93403.69;;;15.08;47.08
10261;BME280;5175;42.606;23.388;2024-02-23T11:27:20;93405.56;;;15.07;47.07
10261;BME280;5175;42.606;23.388;2024-02-23T11:29:46;93394.66;;;14.78;47.17
10261;BME280;5175;42.606;23.388;2024-02-23T11:32:14;93403.63;;;14.65;46.42
10261;BME280;5175;42.606;23.388;2024-02-23T11:34:42;93395.69;;;14.43;47.55
10261;BME280;5175;42.606;23.388;2024-02-23T11:37:09;93397.63;;;14.29;49.11
10261;BME280;5175;42.606;23.388;2024-02-23T11:39:38;93385.31;;;14.28;47.71
10261;BME280;5175;42.606;23.388;2024-02-23T11:42:06;93404.53;;;14.52;47.46
10261;BME280;5175;42.606;23.388;2024-02-23T11:44:33;93393.47;;;14.54;47.68
10261;BME280;5175;42.606;23.388;2024-02-23T11:47:00;93394.91;;;14.60;47.33
10261;BME280;5175;42.606;23.388;2024-02-23T11:49:27;93396.16;;;14.54;48.84
10261;BME280;5175;42.606;23.388;2024-02-23T11:51:55;93384.19;;;14.60;49.29
10261;BME280;5175;42.606;23.388;2024-02-23T11:54:22;93388.72;;;14.42;48.12
10261;BME280;5175;42.606;23.388;2024-02-23T11:56:50;93373.72;;;14.50;48.60
10261;BME280;5175;42.606;23.388;2024-02-23T11:59:19;93370.88;;;14.46;48.58
10261;BME280;5175;42.606;23.388;2024-02-23T12:01:46;93383.34;;;14.42;48.10
10261;BME280;5175;42.606;23.388;2024-02-23T12:04:14;93386.00;;;14.33;48.39
10261;BME280;5175;42.606;23.388;2024-02-23T12:06:42;93386.19;;;14.37;48.70
10261;BME280;5175;42.606;23.388;2024-02-23T12:09:09;93387.13;;;14.32;48.39
10261;BME280;5175;42.606;23.388;2024-02-23T12:11:36;93377.16;;;14.33;47.65
10261;BME280;5175;42.606;23.388;2024-02-23T12:14:05;93374.47;;;14.33;48.24
10261;BME280;5175;42.606;23.388;2024-02-23T12:16:33;93386.09;;;14.20;49.54
10261;BME280;5175;42.606;23.388;2024-02-23T12:19:01;93365.25;;;14.17;49.69
10261;BME280;5175;42.606;23.388;2024-02-23T12:21:28;93355.16;;;14.22;49.13
10261;BME280;5175;42.606;23.388;2024-02-23T12:23:55;93359.13;;;14.25;49.32
10261;BME280;5175;42.606;23.388;2024-02-23T12:26:21;93347.56;;;14.16;49.52
10261;BME280;5175;42.606;23.388;2024-02-23T12:28:48;93353.94;;;13.98;49.35
10261;BME280;5175;42.606;23.388;2024-02-23T12:31:23;93341.81;;;14.00;50.27
10261;BME280;5175;42.606;23.388;2024-02-23T12:33:51;93305.41;;;13.68;51.29
10261;BME280;5175;42.606;23.388;2024-02-23T12:36:17;93352.19;;;13.93;49.81
10261;BME280;5175;42.606;23.388;2024-02-23T12:38:44;93349.31;;;13.81;50.13
10261;BME280;5175;42.606;23.388;2024-02-23T12:41:11;93340.56;;;13.67;51.19
10261;BME280;5175;42.606;23.388;2024-02-23T12:43:38;93334.84;;;13.91;50.31
10261;BME280;5175;42.606;23.388;2024-02-23T12:46:04;93322.97;;;13.83;50.96
10261;BME280;5175;42.606;23.388;2024-02-23T12:48:34;93317.91;;;13.81;50.01
10261;BME280;5175;42.606;23.388;2024-02-23T12:51:02;93323.41;;;13.76;48.86
10261;BME280;5175;42.606;23.388;2024-02-23T12:53:33;93310.13;;;13.71;49.17
10261;BME280;5175;42.606;23.388;2024-02-23T12:56:02;93331.84;;;13.92;49.50
10261;BME280;5175;42.606;23.388;2024-02-23T12:58:29;93305.84;;;14.01;49.25
10261;BME280;5175;42.606;23.388;2024-02-23T13:00:55;93325.28;;;14.07;48.84
10261;BME280;5175;42.606;23.388;2024-02-23T13:03:23;93339.88;;;13.92;48.84
10261;BME280;5175;42.606;23.388;2024-02-23T13:05:51;93340.44;;;14.11;46.89
10261;BME280;5175;42.606;23.388;2024-02-23T13:08:18;93319.94;;;14.15;48.65